createdAt,value
2017-10-22T00:01:46.738Z,30.70
2017-10-22T00:04:14.992Z,11.37
2017-10-22T00:06:43.370Z,11.73
2017-10-22T00:09:12.387Z,7.53
2017-10-22T00:11:41.409Z,17.20
2017-10-22T00:14:09.689Z,20.67
2017-10-22T00:16:37.951Z,14.20
2017-10-22T00:19:07.028Z,11.50
2017-10-22T00:21:36.071Z,12.33
2017-10-22T00:24:04.350Z,5.10
2017-10-22T00:26:32.580Z,7.17
2017-10-22T00:29:01.588Z,17.50
2017-10-22T00:31:30.596Z,13.30
2017-10-22T00:33:58.845Z,12.07
2017-10-22T00:36:27.111Z,15.50
2017-10-22T00:38:56.128Z,14.80
2017-10-22T00:41:24.396Z,15.63
2017-10-22T00:43:52.671Z,17.73
2017-10-22T00:46:21.680Z,10.13
2017-10-22T00:48:49.978Z,18.17
2017-10-22T00:51:18.232Z,8.20
2017-10-22T00:53:46.476Z,12.00
2017-10-22T00:56:16.095Z,11.90
2017-10-22T00:58:45.107Z,15.93
2017-10-22T01:01:13.380Z,8.13
2017-10-22T01:03:41.639Z,20.90
2017-10-22T01:06:11.563Z,19.87
2017-10-22T01:08:40.571Z,10.33
2017-10-22T01:11:09.735Z,16.03
2017-10-22T01:13:38.018Z,9.43
2017-10-22T01:16:06.308Z,10.77
2017-10-22T01:18:34.589Z,16.23
2017-10-22T01:21:03.608Z,19.40
2017-10-22T01:23:31.850Z,9.93
2017-10-22T01:26:00.918Z,17.23
2017-10-22T01:28:29.200Z,22.00
2017-10-22T01:30:57.436Z,11.90
2017-10-22T01:33:25.736Z,9.73
2017-10-22T01:35:53.987Z,15.53
2017-10-22T01:38:22.242Z,12.03
2017-10-22T01:40:50.505Z,13.50
2017-10-22T01:43:19.540Z,13.40
2017-10-22T01:45:47.783Z,12.47
2017-10-22T01:48:16.075Z,13.50
2017-10-22T01:50:44.379Z,24.53
2017-10-22T01:53:12.631Z,26.03
2017-10-22T01:55:40.887Z,19.00
2017-10-22T01:58:09.170Z,12.93
2017-10-22T02:00:37.460Z,13.13
2017-10-22T02:03:06.368Z,23.27
2017-10-22T02:05:34.615Z,22.33
2017-10-22T02:08:03.778Z,12.50
2017-10-22T02:10:32.076Z,12.73
2017-10-22T02:13:00.367Z,11.17
2017-10-22T02:15:28.707Z,9.80
2017-10-22T02:17:56.955Z,19.43
2017-10-22T02:20:25.221Z,7.30
2017-10-22T02:22:54.237Z,21.30
2017-10-22T02:25:22.506Z,13.50
2017-10-22T02:27:50.779Z,12.67
2017-10-22T02:30:20.475Z,18.70
2017-10-22T02:32:48.703Z,9.30
2017-10-22T02:35:16.991Z,16.07
2017-10-22T02:37:45.250Z,17.27
2017-10-22T02:40:13.514Z,7.37
2017-10-22T02:42:41.792Z,5.90
2017-10-22T02:45:10.029Z,11.47
2017-10-22T02:47:39.072Z,13.83
2017-10-22T02:50:07.344Z,19.93
2017-10-22T02:52:35.577Z,20.00
2017-10-22T02:55:04.618Z,18.53
2017-10-22T02:57:32.898Z,24.93
2017-10-22T03:00:01.156Z,10.03
2017-10-22T03:02:29.439Z,10.57
2017-10-22T03:04:57.682Z,15.33
2017-10-22T03:07:26.720Z,18.63
2017-10-22T03:09:55.812Z,11.93
2017-10-22T03:12:24.050Z,8.30
2017-10-22T03:14:53.075Z,13.93
2017-10-22T03:17:21.361Z,11.23
2017-10-22T03:19:49.606Z,17.00
2017-10-22T03:22:18.635Z,10.63
2017-10-22T03:24:46.894Z,12.10
2017-10-22T03:27:15.926Z,16.13
2017-10-22T03:29:44.179Z,13.07
2017-10-22T03:32:12.525Z,13.00
2017-10-22T03:34:40.734Z,23.40
2017-10-22T03:37:08.982Z,11.23
2017-10-22T03:39:38.030Z,15.20
2017-10-22T03:42:06.301Z,14.03
2017-10-22T03:44:34.544Z,11.83
2017-10-22T03:47:03.535Z,10.00
2017-10-22T03:49:32.555Z,12.30
2017-10-22T03:52:00.782Z,7.37
2017-10-22T03:54:29.828Z,18.87
2017-10-22T03:56:58.042Z,13.50
2017-10-22T03:59:26.319Z,21.97
2017-10-22T04:01:54.558Z,8.77
2017-10-22T04:04:22.819Z,7.17
2017-10-22T04:06:51.074Z,11.00
2017-10-22T04:09:19.325Z,23.27
2017-10-22T04:11:47.574Z,9.20
2017-10-22T04:14:15.838Z,15.10
2017-10-22T04:16:44.071Z,12.13
2017-10-22T04:19:13.106Z,12.33
2017-10-22T04:21:41.372Z,6.37
2017-10-22T04:24:10.362Z,10.47
2017-10-22T04:26:38.623Z,9.57
2017-10-22T04:29:06.868Z,16.30
2017-10-22T04:31:35.130Z,14.73
2017-10-22T04:34:03.374Z,5.37
2017-10-22T04:36:32.379Z,12.97
2017-10-22T04:39:00.662Z,14.00
2017-10-22T04:41:28.948Z,11.60
2017-10-22T04:43:57.221Z,16.43
2017-10-22T04:46:25.473Z,16.90
2017-10-22T04:48:53.741Z,21.90
2017-10-22T04:51:21.966Z,10.03
2017-10-22T04:53:50.224Z,16.17
2017-10-22T04:56:18.467Z,6.50
2017-10-22T04:58:47.499Z,8.97
2017-10-22T05:01:15.748Z,12.50
2017-10-22T05:03:44.758Z,8.20
2017-10-22T05:06:13.032Z,11.13
2017-10-22T05:08:42.026Z,23.23
2017-10-22T05:11:10.311Z,9.10
2017-10-22T05:13:39.431Z,11.60
2017-10-22T05:16:07.700Z,16.60
2017-10-22T05:18:35.928Z,20.53
2017-10-22T05:21:05.548Z,20.37
2017-10-22T05:23:34.932Z,11.97
2017-10-22T05:26:03.156Z,12.23
2017-10-22T05:28:31.430Z,6.67
2017-10-22T05:30:59.668Z,15.30
2017-10-22T05:33:27.914Z,7.07
2017-10-22T05:35:56.167Z,21.63
2017-10-22T05:38:24.407Z,13.00
2017-10-22T05:40:53.444Z,10.20
2017-10-22T05:43:21.723Z,9.00
2017-10-22T05:45:49.993Z,15.53
2017-10-22T05:48:18.257Z,6.00
2017-10-22T05:50:47.251Z,18.43
2017-10-22T05:53:15.478Z,9.57
2017-10-22T05:55:43.750Z,13.03
2017-10-22T05:58:11.985Z,11.43
2017-10-22T06:00:40.254Z,8.47
2017-10-22T06:03:08.500Z,12.87
2017-10-22T06:05:36.781Z,11.43
2017-10-22T06:08:05.031Z,12.43
2017-10-22T06:10:33.297Z,18.53
2017-10-22T06:13:01.585Z,12.13
2017-10-22T06:15:29.815Z,24.13
2017-10-22T06:17:58.091Z,20.87
2017-10-22T06:20:27.099Z,5.87
2017-10-22T06:22:55.378Z,6.97
2017-10-22T06:25:23.627Z,3.53
2017-10-22T06:27:52.705Z,7.20
2017-10-22T06:30:20.955Z,7.90
2017-10-22T06:32:49.195Z,10.53
2017-10-22T06:35:17.447Z,9.30
2017-10-22T06:37:46.503Z,8.80
2017-10-22T06:40:14.761Z,3.13
2017-10-22T06:42:43.013Z,13.33
2017-10-22T06:45:12.006Z,2.50
2017-10-22T06:47:41.991Z,12.20
2017-10-22T06:50:10.251Z,9.40
2017-10-22T06:52:38.543Z,24.50
2017-10-22T06:55:06.781Z,6.30
2017-10-22T06:57:35.061Z,5.60
2017-10-22T07:00:03.351Z,8.00
2017-10-22T07:02:31.589Z,2.40
2017-10-22T07:04:59.857Z,6.50
2017-10-22T07:07:28.881Z,12.10
2017-10-22T07:09:57.152Z,8.70
2017-10-22T07:12:26.164Z,5.50
2017-10-22T07:14:54.443Z,4.17
2017-10-22T07:17:22.686Z,9.00
2017-10-22T07:19:51.671Z,11.20
2017-10-22T07:22:20.683Z,3.70
2017-10-22T07:24:49.248Z,10.50
2017-10-22T07:27:18.266Z,6.00
2017-10-22T07:29:47.263Z,10.37
2017-10-22T07:32:15.520Z,12.83
2017-10-22T07:34:44.607Z,6.77
2017-10-22T07:37:12.864Z,8.27
2017-10-22T07:39:41.108Z,8.00
2017-10-22T07:42:09.738Z,4.20
2017-10-22T07:44:37.990Z,3.27
2017-10-22T07:47:06.241Z,6.23
2017-10-22T07:49:36.904Z,7.63
2017-10-22T07:52:07.888Z,4.10
2017-10-22T07:54:39.645Z,5.00
2017-10-22T07:57:10.983Z,5.53
2017-10-22T07:59:42.706Z,3.83
2017-10-22T08:02:14.366Z,7.47
2017-10-22T08:04:44.664Z,3.37
2017-10-22T08:07:15.626Z,2.40
2017-10-22T08:09:45.829Z,4.57
2017-10-22T08:12:16.595Z,6.70
2017-10-22T08:14:46.844Z,7.90
2017-10-22T08:17:16.829Z,6.00
2017-10-22T08:19:46.671Z,4.27
2017-10-22T08:22:17.320Z,5.40
2017-10-22T08:24:48.142Z,2.00
2017-10-22T08:27:18.915Z,9.47
2017-10-22T08:29:49.386Z,4.50
2017-10-22T08:32:20.196Z,2.87
2017-10-22T08:34:51.490Z,6.23
2017-10-22T08:37:22.996Z,2.70
2017-10-22T08:39:53.495Z,2.17
2017-10-22T08:42:23.438Z,2.20
2017-10-22T08:44:55.745Z,6.03
2017-10-22T08:47:26.363Z,8.27
2017-10-22T08:49:57.572Z,5.17
2017-10-22T08:52:27.901Z,4.50
2017-10-22T08:54:58.802Z,2.73
2017-10-22T08:57:29.791Z,2.43
2017-10-22T09:00:00.765Z,1.40
2017-10-22T09:02:30.962Z,2.53
2017-10-22T09:05:01.466Z,6.20
2017-10-22T09:07:31.487Z,1.30
2017-10-22T09:10:02.393Z,4.63
2017-10-22T09:12:31.952Z,2.30
2017-10-22T09:15:02.391Z,1.13
2017-10-22T09:17:30.932Z,5.43
2017-10-22T09:19:59.973Z,1.30
2017-10-22T09:22:28.233Z,1.00
2017-10-22T09:24:56.560Z,3.03
2017-10-22T09:27:24.822Z,1.33
2017-10-22T09:29:53.180Z,1.10
2017-10-22T09:32:23.243Z,1.13
2017-10-22T09:34:52.311Z,3.53
2017-10-22T09:37:20.618Z,0.70
2017-10-22T09:39:48.933Z,2.00
2017-10-22T09:42:17.199Z,2.40
2017-10-22T09:44:46.249Z,1.23
2017-10-22T09:47:14.519Z,3.23
2017-10-22T09:49:42.803Z,1.40
2017-10-22T09:52:11.093Z,1.33
2017-10-22T09:54:39.370Z,0.80
2017-10-22T09:57:07.682Z,2.23
2017-10-22T09:59:36.801Z,1.13
2017-10-22T10:02:05.451Z,1.30
2017-10-22T10:04:34.508Z,0.90
2017-10-22T10:07:02.819Z,1.00
2017-10-22T10:09:31.143Z,1.40
2017-10-22T10:12:00.086Z,1.83
2017-10-22T10:14:28.360Z,2.30
2017-10-22T10:16:57.230Z,2.23
2017-10-22T10:19:26.459Z,1.63
2017-10-22T10:21:55.150Z,2.10
2017-10-22T10:24:24.196Z,0.90
2017-10-22T10:26:52.427Z,3.10
2017-10-22T10:29:21.224Z,0.80
2017-10-22T10:31:49.490Z,1.40
2017-10-22T10:34:18.279Z,3.00
2017-10-22T10:36:46.533Z,1.07
2017-10-22T10:39:15.646Z,3.97
2017-10-22T10:41:45.018Z,1.00
2017-10-22T10:44:13.324Z,1.33
2017-10-22T10:46:41.631Z,2.30
2017-10-22T10:49:10.128Z,2.60
2017-10-22T10:51:39.140Z,3.63
2017-10-22T10:54:09.059Z,5.20
2017-10-22T10:56:37.377Z,1.43
2017-10-22T10:59:05.651Z,2.07
2017-10-22T11:01:34.704Z,1.80
2017-10-22T11:04:04.202Z,0.80
2017-10-22T11:06:32.587Z,1.00
2017-10-22T11:09:00.836Z,1.67
2017-10-22T11:11:29.172Z,2.00
2017-10-22T11:13:58.341Z,1.17
2017-10-22T11:16:27.638Z,1.37
2017-10-22T11:18:56.883Z,1.23
2017-10-22T11:21:25.163Z,1.00
2017-10-22T11:23:53.411Z,4.43
2017-10-22T11:26:21.687Z,1.70
2017-10-22T11:28:49.972Z,1.37
2017-10-22T11:31:18.207Z,3.30
2017-10-22T11:33:46.466Z,1.17
2017-10-22T11:36:15.554Z,2.13
2017-10-22T11:38:43.823Z,1.00
2017-10-22T11:41:12.499Z,1.13
2017-10-22T11:43:41.167Z,4.57
2017-10-22T11:46:09.450Z,3.60
2017-10-22T11:48:38.491Z,2.23
2017-10-22T11:51:06.761Z,1.47
2017-10-22T11:53:35.783Z,11.20
2017-10-22T11:56:04.059Z,8.10
2017-10-22T11:58:32.410Z,6.40
2017-10-22T12:01:00.662Z,2.30
2017-10-22T12:03:29.242Z,1.17
2017-10-22T12:05:57.567Z,4.17
2017-10-22T12:08:26.644Z,2.27
2017-10-22T12:10:55.720Z,1.00
2017-10-22T12:13:24.019Z,3.03
2017-10-22T12:15:52.353Z,1.20
2017-10-22T12:18:20.666Z,1.93
2017-10-22T12:20:49.249Z,2.57
2017-10-22T12:23:17.510Z,1.50
2017-10-22T12:25:45.829Z,8.53
2017-10-22T12:28:15.599Z,3.47
2017-10-22T12:30:44.650Z,1.70
2017-10-22T12:33:13.510Z,2.37
2017-10-22T12:35:41.735Z,9.97
2017-10-22T12:38:10.002Z,1.53
2017-10-22T12:40:39.036Z,6.60
2017-10-22T12:43:07.441Z,2.50
2017-10-22T12:45:35.856Z,1.50
2017-10-22T12:48:05.028Z,1.43
2017-10-22T12:50:34.037Z,2.70
2017-10-22T12:53:02.361Z,2.60
2017-10-22T12:55:30.643Z,2.13
2017-10-22T12:57:59.863Z,1.37
2017-10-22T13:00:28.459Z,2.07
2017-10-22T13:02:57.033Z,2.23
2017-10-22T13:05:25.338Z,1.47
2017-10-22T13:07:54.373Z,2.93
2017-10-22T13:10:22.674Z,1.40
2017-10-22T13:12:50.961Z,2.40
2017-10-22T13:15:19.802Z,6.40
2017-10-22T13:17:48.085Z,2.00
2017-10-22T13:20:16.392Z,2.17
2017-10-22T13:22:44.678Z,2.73
2017-10-22T13:25:12.947Z,1.87
2017-10-22T13:27:41.261Z,1.33
2017-10-22T13:30:10.908Z,1.40
2017-10-22T13:32:39.152Z,1.67
2017-10-22T13:35:07.435Z,7.40
2017-10-22T13:37:35.743Z,2.03
2017-10-22T13:40:04.048Z,4.83
2017-10-22T13:42:32.435Z,12.33
2017-10-22T13:45:00.741Z,3.00
2017-10-22T13:47:29.028Z,1.83
2017-10-22T13:49:57.376Z,2.13
2017-10-22T13:52:25.765Z,4.53
2017-10-22T13:54:53.991Z,2.10
2017-10-22T13:57:22.262Z,4.33
2017-10-22T13:59:50.641Z,7.40
2017-10-22T14:02:19.775Z,2.73
2017-10-22T14:04:48.901Z,3.70
2017-10-22T14:07:18.370Z,8.10
2017-10-22T14:09:48.199Z,5.33
2017-10-22T14:12:16.498Z,5.00
2017-10-22T14:14:44.809Z,5.93
2017-10-22T14:17:13.077Z,5.80
2017-10-22T14:19:42.167Z,5.87
2017-10-22T14:22:11.173Z,4.10
2017-10-22T14:24:39.449Z,7.13
2017-10-22T14:27:07.728Z,2.33
2017-10-22T14:29:36.003Z,2.13
2017-10-22T14:32:05.027Z,6.30
2017-10-22T14:34:33.292Z,2.80
2017-10-22T14:37:01.663Z,3.77
2017-10-22T14:39:30.092Z,4.03
2017-10-22T14:41:58.332Z,4.20
2017-10-22T14:44:26.581Z,17.27
2017-10-22T14:46:54.881Z,3.93
2017-10-22T14:49:23.133Z,6.90
2017-10-22T14:51:52.197Z,4.80
2017-10-22T14:54:20.450Z,5.83
2017-10-22T14:56:48.707Z,7.27
2017-10-22T14:59:17.810Z,8.83
2017-10-22T15:01:47.026Z,14.23
2017-10-22T15:04:16.264Z,11.30
2017-10-22T15:06:45.332Z,10.67
2017-10-22T15:09:13.609Z,17.43
2017-10-22T15:11:41.959Z,13.33
2017-10-22T15:14:10.536Z,14.67
2017-10-22T15:16:38.812Z,14.67
2017-10-22T15:19:07.158Z,13.33
2017-10-22T15:21:35.427Z,12.90
2017-10-22T15:24:04.515Z,10.00
2017-10-22T15:26:32.882Z,13.17
2017-10-22T15:29:01.129Z,12.60
2017-10-22T15:31:29.462Z,19.90
2017-10-22T15:33:57.736Z,11.37
2017-10-22T15:36:26.838Z,18.17
2017-10-22T15:38:55.122Z,17.70
2017-10-22T15:41:23.457Z,12.90
2017-10-22T15:43:51.722Z,20.80
2017-10-22T15:46:19.997Z,15.63
2017-10-22T15:48:48.380Z,11.73
2017-10-22T15:51:18.211Z,33.33
2017-10-22T15:53:46.498Z,20.33
2017-10-22T15:56:15.589Z,19.03
2017-10-22T15:58:43.849Z,22.37
2017-10-22T16:01:12.183Z,26.13
2017-10-22T16:03:41.213Z,17.63
2017-10-22T16:06:09.540Z,19.40
2017-10-22T16:08:37.829Z,13.00
2017-10-22T16:11:06.195Z,13.13
2017-10-22T16:13:34.420Z,15.40
2017-10-22T16:16:02.712Z,14.60
2017-10-22T16:18:30.999Z,28.07
2017-10-22T16:20:59.366Z,20.13
2017-10-22T16:23:27.666Z,17.97
2017-10-22T16:25:55.915Z,18.10
2017-10-22T16:28:24.191Z,20.70
2017-10-22T16:30:52.527Z,21.30
2017-10-22T16:33:21.594Z,24.07
2017-10-22T16:35:49.898Z,22.17
2017-10-22T16:38:18.159Z,17.33
2017-10-22T16:40:47.215Z,23.17
2017-10-22T16:43:15.518Z,19.33
2017-10-22T16:45:44.432Z,15.07
2017-10-22T16:48:14.499Z,15.80
2017-10-22T16:50:42.777Z,14.50
2017-10-22T16:53:11.115Z,21.90
2017-10-22T16:55:39.395Z,12.30
2017-10-22T16:58:08.457Z,14.93
2017-10-22T17:00:36.727Z,25.63
2017-10-22T17:03:05.007Z,18.90
2017-10-22T17:05:33.308Z,16.63
2017-10-22T17:08:01.607Z,26.27
2017-10-22T17:10:29.905Z,22.43
2017-10-22T17:12:59.090Z,25.80
2017-10-22T17:15:28.148Z,24.90
2017-10-22T17:17:57.283Z,22.00
2017-10-22T17:20:25.565Z,27.23
2017-10-22T17:22:53.843Z,18.40
2017-10-22T17:25:22.886Z,15.57
2017-10-22T17:27:51.805Z,25.10
2017-10-22T17:30:20.889Z,13.40
2017-10-22T17:32:49.173Z,18.70
2017-10-22T17:35:17.473Z,22.53
2017-10-22T17:37:46.545Z,14.80
2017-10-22T17:40:14.914Z,19.00
2017-10-22T17:42:43.224Z,15.83
2017-10-22T17:45:12.306Z,19.37
2017-10-22T17:47:40.626Z,15.47
2017-10-22T17:50:08.939Z,13.33
2017-10-22T17:52:37.205Z,11.37
2017-10-22T17:55:06.290Z,17.20
2017-10-22T17:57:34.709Z,10.93
2017-10-22T18:00:02.995Z,7.40
2017-10-22T18:02:31.514Z,18.53
2017-10-22T18:04:59.839Z,12.60
2017-10-22T18:07:28.101Z,15.40
2017-10-22T18:09:57.474Z,31.00
2017-10-22T18:12:25.821Z,13.90
2017-10-22T18:14:54.270Z,17.73
2017-10-22T18:17:22.591Z,24.53
2017-10-22T18:19:50.956Z,19.10
2017-10-22T18:22:19.432Z,19.73
2017-10-22T18:24:47.673Z,19.10
2017-10-22T18:27:16.065Z,18.13
2017-10-22T18:29:46.081Z,28.43
2017-10-22T18:32:14.560Z,17.80
2017-10-22T18:34:44.805Z,22.27
2017-10-22T18:37:14.298Z,14.80
2017-10-22T18:39:43.469Z,20.83
2017-10-22T18:42:11.753Z,18.50
2017-10-22T18:44:40.117Z,15.93
2017-10-22T18:47:09.449Z,15.27
2017-10-22T18:49:40.115Z,15.60
2017-10-22T18:52:11.994Z,11.67
2017-10-22T18:54:42.924Z,20.50
2017-10-22T18:57:12.420Z,22.70
2017-10-22T18:59:44.234Z,12.83
2017-10-22T19:02:14.098Z,21.60
2017-10-22T19:04:43.257Z,22.57
2017-10-22T19:07:12.479Z,13.23
2017-10-22T19:09:40.809Z,12.67
2017-10-22T19:12:10.499Z,19.03
2017-10-22T19:14:41.346Z,12.37
2017-10-22T19:17:11.675Z,22.27
2017-10-22T19:19:44.612Z,11.43
2017-10-22T19:22:14.322Z,17.90
2017-10-22T19:24:45.531Z,10.37
2017-10-22T19:27:17.256Z,6.77
2017-10-22T19:29:47.252Z,15.60
2017-10-22T19:32:15.697Z,17.57
2017-10-22T19:34:44.009Z,16.80
2017-10-22T19:37:12.374Z,20.83
2017-10-22T19:39:41.065Z,19.93
2017-10-22T19:42:09.894Z,15.37
2017-10-22T19:44:38.382Z,14.17
2017-10-22T19:47:06.908Z,11.27
2017-10-22T19:49:35.302Z,14.33
2017-10-22T19:52:03.823Z,18.13
2017-10-22T19:54:32.125Z,17.67
2017-10-22T19:57:00.468Z,12.27
2017-10-22T19:59:29.580Z,16.67
2017-10-22T20:01:58.658Z,10.00
2017-10-22T20:04:27.053Z,15.40
2017-10-22T20:06:56.162Z,18.73
2017-10-22T20:09:25.342Z,12.87
2017-10-22T20:11:53.686Z,12.83
2017-10-22T20:14:22.103Z,12.80
2017-10-22T20:16:50.626Z,13.93
2017-10-22T20:19:19.793Z,9.90
2017-10-22T20:21:48.888Z,12.10
2017-10-22T20:24:17.130Z,6.20
2017-10-22T20:26:45.513Z,22.40
2017-10-22T20:29:13.786Z,17.90
2017-10-22T20:31:42.121Z,15.67
2017-10-22T20:34:11.193Z,17.13
2017-10-22T20:36:39.521Z,14.10
2017-10-22T20:39:08.155Z,26.13
2017-10-22T20:41:36.434Z,12.93
2017-10-22T20:44:04.768Z,18.03
2017-10-22T20:46:33.954Z,19.30
2017-10-22T20:49:02.212Z,21.10
2017-10-22T20:51:31.381Z,19.20
2017-10-22T20:53:59.646Z,11.23
2017-10-22T20:56:27.941Z,17.03
2017-10-22T20:58:56.255Z,12.20
2017-10-22T21:01:26.724Z,18.30
2017-10-22T21:03:57.153Z,18.23
2017-10-22T21:06:26.673Z,16.37
2017-10-22T21:08:56.511Z,12.63
2017-10-22T21:11:25.550Z,19.93
2017-10-22T21:13:53.853Z,12.60
2017-10-22T21:16:22.107Z,20.03
2017-10-22T21:18:50.387Z,18.43
2017-10-22T21:21:18.674Z,32.77
2017-10-22T21:23:47.550Z,14.07
2017-10-22T21:26:15.839Z,20.77
2017-10-22T21:28:44.128Z,16.00
2017-10-22T21:31:12.396Z,14.07
2017-10-22T21:33:40.664Z,16.03
2017-10-22T21:36:08.990Z,14.50
2017-10-22T21:38:38.040Z,10.90
2017-10-22T21:41:06.804Z,17.93
2017-10-22T21:43:35.469Z,42.67
2017-10-22T21:46:04.501Z,24.73
2017-10-22T21:48:33.235Z,14.87
2017-10-22T21:51:01.820Z,19.23
2017-10-22T21:53:30.229Z,13.60
2017-10-22T21:55:58.487Z,14.43
2017-10-22T21:58:27.532Z,14.40
2017-10-22T22:00:55.852Z,19.60
2017-10-22T22:03:24.215Z,20.13
2017-10-22T22:05:53.567Z,12.73
2017-10-22T22:08:21.851Z,24.37
2017-10-22T22:10:50.952Z,24.73
2017-10-22T22:13:19.198Z,27.87
2017-10-22T22:15:48.918Z,37.03
2017-10-22T22:18:17.246Z,34.10
2017-10-22T22:20:46.300Z,20.93
2017-10-22T22:23:14.831Z,16.83
2017-10-22T22:25:43.088Z,16.27
2017-10-22T22:28:11.380Z,21.80
2017-10-22T22:30:40.200Z,17.63
2017-10-22T22:33:08.472Z,27.17
2017-10-22T22:35:36.721Z,10.93
2017-10-22T22:38:05.737Z,23.23
2017-10-22T22:40:34.156Z,33.03
2017-10-22T22:43:02.434Z,22.37
2017-10-22T22:45:30.685Z,30.63
2017-10-22T22:47:59.734Z,19.03
2017-10-22T22:50:28.019Z,35.50
2017-10-22T22:52:56.258Z,17.40
2017-10-22T22:55:25.293Z,27.20
2017-10-22T22:57:54.956Z,29.90
2017-10-22T23:00:23.994Z,23.93
2017-10-22T23:02:53.141Z,18.33
2017-10-22T23:05:22.249Z,24.17
2017-10-22T23:07:51.311Z,14.97
2017-10-22T23:10:20.366Z,26.70
2017-10-22T23:12:48.684Z,18.83
2017-10-22T23:15:16.950Z,21.80
2017-10-22T23:17:45.800Z,17.80
2017-10-22T23:20:14.026Z,27.57
2017-10-22T23:22:42.331Z,26.63
2017-10-22T23:25:11.378Z,36.13
2017-10-22T23:27:39.630Z,12.17
2017-10-22T23:30:07.918Z,22.57
2017-10-22T23:32:36.159Z,14.27
2017-10-22T23:35:05.192Z,21.43
2017-10-22T23:37:33.426Z,22.40
2017-10-22T23:40:02.476Z,18.30
2017-10-22T23:42:30.755Z,19.30
2017-10-22T23:44:59.386Z,25.30
2017-10-22T23:47:29.139Z,16.20
2017-10-22T23:49:57.382Z,18.03
2017-10-22T23:52:26.419Z,17.37
2017-10-22T23:54:54.707Z,22.97
2017-10-22T23:57:22.959Z,23.60
2017-10-22T23:59:51.661Z,24.60
